2016 Cux-Wetter.de -Die Nutzung der Wetterdaten nur mit ausdrcklicher Genehmigung
Wetterdaten: Woche 11.12.17 - 17.12.17 (KW50)
Datum Zeit Temp. A. Feuchte A. Luftdruck Regen Wind Richtung Sonnenschein Solar Taupunkt Windchill Windben
11.12.2017 00:00 -0,2 C 95 % 975,9 hPa 0,0 l/m 6,0 km/h (2 Bft) N-NO 0,00 h 0 W/m -0,9 C -0,3 C 12,4 km/h (2 Bft)
11.12.2017 01:00 -0,3 C 95 % 976,8 hPa 0,0 l/m 5,7 km/h (2 Bft) N-NO 0,00 h 0 W/m -1,0 C -0,4 C 11,8 km/h (2 Bft)
11.12.2017 02:00 -0,4 C 95 % 978,3 hPa 0,0 l/m 6,4 km/h (2 Bft) N-NO 0,00 h 0 W/m -1,1 C -0,7 C 12,7 km/h (3 Bft)
11.12.2017 03:00 -0,0 C 95 % 980,4 hPa 0,0 l/m 5,5 km/h (2 Bft) N 0,00 h 0 W/m -0,7 C -0,1 C 11,1 km/h (2 Bft)
11.12.2017 04:00 0,1 C 95 % 981,3 hPa 0,0 l/m 5,4 km/h (2 Bft) N-NO 0,00 h 0 W/m -0,6 C 0,1 C 11,9 km/h (2 Bft)
11.12.2017 05:00 0,4 C 95 % 983,2 hPa 0,0 l/m 5,0 km/h (1 Bft) N 0,00 h 0 W/m -0,3 C 0,4 C 11,4 km/h (2 Bft)
11.12.2017 06:00 0,8 C 95 % 984,4 hPa 0,0 l/m 5,2 km/h (1 Bft) N 0,00 h 0 W/m 0,1 C 0,8 C 11,6 km/h (2 Bft)
11.12.2017 07:00 0,7 C 94 % 983,5 hPa 0,0 l/m 4,7 km/h (1 Bft) N-NO 0,00 h 0 W/m -0,1 C 0,7 C 9,2 km/h (2 Bft)
11.12.2017 08:00 0,4 C 94 % 983,8 hPa 0,0 l/m 4,5 km/h (1 Bft) NO 0,00 h 0 W/m -0,5 C 0,4 C 8,3 km/h (2 Bft)
11.12.2017 09:00 0,3 C 94 % 984,7 hPa 0,0 l/m 3,9 km/h (1 Bft) N-NO 0,00 h 8 W/m -0,5 C 0,3 C 7,9 km/h (2 Bft)
11.12.2017 10:00 0,6 C 94 % 986,0 hPa 0,0 l/m 2,3 km/h (1 Bft) NO 0,00 h 12 W/m -0,2 C 0,6 C 5,4 km/h (1 Bft)
11.12.2017 11:00 0,9 C 94 % 985,5 hPa 0,0 l/m 2,2 km/h (1 Bft) NO 0,00 h 10 W/m 0,0 C 0,9 C 5,2 km/h (1 Bft)
11.12.2017 12:00 1,1 C 94 % 985,1 hPa 0,0 l/m 3,2 km/h (1 Bft) N 0,00 h 9 W/m 0,2 C 1,1 C 6,5 km/h (2 Bft)
11.12.2017 13:00 1,1 C 94 % 984,7 hPa 0,0 l/m 2,8 km/h (1 Bft) N-NO 0,00 h 6 W/m 0,3 C 1,1 C 5,7 km/h (2 Bft)
11.12.2017 14:00 1,2 C 94 % 983,5 hPa 0,0 l/m 4,3 km/h (1 Bft) N-NO 0,00 h 5 W/m 0,4 C 1,2 C 7,9 km/h (2 Bft)
11.12.2017 15:00 1,3 C 95 % 983,1 hPa 0,0 l/m 4,3 km/h (1 Bft) NO 0,00 h 0 W/m 0,5 C 1,3 C 8,2 km/h (2 Bft)
11.12.2017 16:00 1,1 C 95 % 982,4 hPa 0,0 l/m 3,9 km/h (1 Bft) NO 0,00 h 0 W/m 0,4 C 1,1 C 8,5 km/h (2 Bft)
11.12.2017 17:00 0,9 C 95 % 982,4 hPa 0,0 l/m 4,0 km/h (1 Bft) N-NO 0,00 h 0 W/m 0,3 C 0,9 C 7,6 km/h (2 Bft)
11.12.2017 18:00 1,1 C 96 % 982,4 hPa 0,0 l/m 6,9 km/h (2 Bft) N-NO 0,00 h 0 W/m 0,5 C 0,2 C 14,0 km/h (3 Bft)
11.12.2017 19:00 1,1 C 96 % 981,9 hPa 0,6 l/m 9,1 km/h (2 Bft) N-NO 0,00 h 0 W/m 0,6 C -1,4 C 18,3 km/h (3 Bft)
11.12.2017 20:00 0,9 C 96 % 981,8 hPa 0,4 l/m 6,9 km/h (2 Bft) N-NO 0,00 h 0 W/m 0,4 C 0,2 C 13,9 km/h (3 Bft)
11.12.2017 21:00 0,8 C 96 % 982,3 hPa 0,4 l/m 5,0 km/h (1 Bft) N-NO 0,00 h 0 W/m 0,2 C 0,8 C 9,9 km/h (2 Bft)
11.12.2017 22:00 0,8 C 97 % 982,3 hPa 0,2 l/m 5,6 km/h (2 Bft) N-NO 0,00 h 0 W/m 0,3 C 0,7 C 11,6 km/h (2 Bft)
11.12.2017 23:00 0,9 C 97 % 982,5 hPa 0,4 l/m 6,4 km/h (2 Bft) N-NO 0,00 h 0 W/m 0,5 C 0,6 C 13,0 km/h (3 Bft)
12.12.2017 00:00 0,9 C 97 % 982,6 hPa 0,4 l/m 6,6 km/h (2 Bft) N-NO 0,00 h 0 W/m 0,5 C 0,5 C 13,9 km/h (3 Bft)
12.12.2017 01:00 1,1 C 97 % 983,0 hPa 0,4 l/m 7,6 km/h (2 Bft) N-NO 0,00 h 0 W/m 0,7 C -0,1 C 15,5 km/h (3 Bft)
12.12.2017 02:00 1,1 C 97 % 983,9 hPa 0,4 l/m 9,8 km/h (2 Bft) N-NO 0,00 h 0 W/m 0,7 C -2,0 C 20,6 km/h (4 Bft)
12.12.2017 03:00 1,1 C 97 % 985,1 hPa 0,4 l/m 11,0 km/h (2 Bft) N 0,00 h 0 W/m 0,6 C -3,0 C 22,4 km/h (4 Bft)
12.12.2017 04:00 1,3 C 97 % 986,1 hPa 0,2 l/m 11,0 km/h (2 Bft) N 0,00 h 0 W/m 0,9 C -2,8 C 21,7 km/h (4 Bft)
12.12.2017 05:00 1,7 C 97 % 987,2 hPa 0,4 l/m 14,5 km/h (3 Bft) N 0,00 h 0 W/m 1,3 C -4,5 C 25,4 km/h (4 Bft)
12.12.2017 06:00 2,0 C 97 % 989,0 hPa 0,6 l/m 15,5 km/h (3 Bft) N 0,00 h 0 W/m 1,5 C -4,9 C 25,9 km/h (4 Bft)
12.12.2017 07:00 2,1 C 97 % 990,6 hPa 0,6 l/m 13,5 km/h (3 Bft) N 0,00 h 0 W/m 1,7 C -3,4 C 23,2 km/h (4 Bft)
12.12.2017 08:00 2,2 C 97 % 992,4 hPa 0,4 l/m 14,3 km/h (3 Bft) NW 0,00 h 0 W/m 1,8 C -3,9 C 24,8 km/h (4 Bft)
12.12.2017 09:00 2,5 C 97 % 994,1 hPa 0,8 l/m 13,5 km/h (3 Bft) N-NW 0,00 h 7 W/m 2,0 C -3,0 C 23,6 km/h (4 Bft)
12.12.2017 10:00 2,4 C 96 % 995,9 hPa 0,8 l/m 14,9 km/h (3 Bft) N 0,00 h 23 W/m 1,8 C -3,9 C 26,1 km/h (4 Bft)
12.12.2017 11:00 2,6 C 96 % 997,6 hPa 0,8 l/m 12,9 km/h (3 Bft) N 0,00 h 43 W/m 2,0 C -2,4 C 22,6 km/h (4 Bft)
12.12.2017 12:00 3,1 C 94 % 998,9 hPa 0,4 l/m 10,4 km/h (2 Bft) N 0,00 h 65 W/m 2,2 C -0,2 C 19,3 km/h (3 Bft)
12.12.2017 13:00 3,2 C 91 % 1000,1 hPa 0,6 l/m 7,7 km/h (2 Bft) NW 0,00 h 61 W/m 1,8 C 1,7 C 14,5 km/h (3 Bft)
12.12.2017 14:00 3,5 C 89 % 1001,3 hPa 0,4 l/m 3,2 km/h (1 Bft) W-NW 0,00 h 32 W/m 1,9 C 3,5 C 6,5 km/h (2 Bft)
12.12.2017 15:00 3,4 C 90 % 1002,6 hPa 0,2 l/m 5,4 km/h (2 Bft) SW 0,00 h 17 W/m 1,9 C 3,4 C 8,5 km/h (2 Bft)
12.12.2017 16:00 3,2 C 92 % 1003,9 hPa 0,2 l/m 7,7 km/h (2 Bft) SW 0,00 h 0 W/m 2,1 C 1,9 C 13,1 km/h (3 Bft)
12.12.2017 17:00 2,8 C 93 % 1004,9 hPa 0,2 l/m 7,3 km/h (2 Bft) SW 0,00 h 0 W/m 1,8 C 1,3 C 11,3 km/h (2 Bft)
12.12.2017 18:00 2,7 C 94 % 1005,7 hPa 0,0 l/m 12,7 km/h (3 Bft) SW 0,00 h 0 W/m 1,8 C -2,3 C 20,2 km/h (4 Bft)
12.12.2017 19:00 2,8 C 93 % 1006,4 hPa 0,2 l/m 13,8 km/h (3 Bft) SW 0,00 h 0 W/m 1,9 C -2,8 C 21,0 km/h (4 Bft)
12.12.2017 20:00 2,3 C 94 % 1007,0 hPa 0,0 l/m 14,0 km/h (3 Bft) SW 0,00 h 0 W/m 1,4 C -3,6 C 21,9 km/h (4 Bft)
12.12.2017 21:00 2,3 C 94 % 1007,2 hPa 0,0 l/m 16,7 km/h (3 Bft) SW 0,00 h 0 W/m 1,4 C -5,2 C 25,6 km/h (4 Bft)
12.12.2017 22:00 1,9 C 94 % 1007,2 hPa 0,0 l/m 15,2 km/h (3 Bft) SW 0,00 h 0 W/m 1,0 C -4,8 C 24,2 km/h (4 Bft)
12.12.2017 23:00 1,6 C 95 % 1007,5 hPa 0,0 l/m 16,7 km/h (3 Bft) SW 0,00 h 0 W/m 0,9 C -5,9 C 25,2 km/h (4 Bft)
13.12.2017 00:00 1,6 C 95 % 1007,8 hPa 0,2 l/m 22,2 km/h (4 Bft) S-SW 0,00 h 0 W/m 0,8 C -8,5 C 34,7 km/h (5 Bft)
13.12.2017 01:00 1,5 C 95 % 1007,7 hPa 0,0 l/m 23,3 km/h (4 Bft) SW 0,00 h 0 W/m 0,8 C -9,0 C 35,8 km/h (5 Bft)
13.12.2017 02:00 1,5 C 94 % 1007,0 hPa 0,0 l/m 17,9 km/h (3 Bft) S-SW 0,00 h 0 W/m 0,7 C -6,7 C 29,7 km/h (5 Bft)
13.12.2017 03:00 1,4 C 94 % 1006,6 hPa 0,0 l/m 17,0 km/h (3 Bft) S-SW 0,00 h 0 W/m 0,5 C -6,4 C 29,0 km/h (5 Bft)
13.12.2017 04:00 1,2 C 94 % 1005,6 hPa 0,0 l/m 15,6 km/h (3 Bft) S 0,00 h 0 W/m 0,4 C -5,8 C 26,1 km/h (4 Bft)
13.12.2017 05:00 1,3 C 94 % 1004,9 hPa 0,0 l/m 15,7 km/h (3 Bft) S 0,00 h 0 W/m 0,4 C -5,8 C 26,9 km/h (4 Bft)
13.12.2017 06:00 1,4 C 94 % 1003,8 hPa 0,0 l/m 16,6 km/h (3 Bft) S 0,00 h 0 W/m 0,5 C -6,2 C 28,0 km/h (5 Bft)
13.12.2017 07:00 1,6 C 94 % 1002,8 hPa 0,0 l/m 17,1 km/h (3 Bft) S 0,00 h 0 W/m 0,7 C -6,2 C 29,7 km/h (5 Bft)
13.12.2017 08:00 1,9 C 92 % 1001,9 hPa 0,0 l/m 18,2 km/h (3 Bft) S 0,00 h 6 W/m 0,8 C -6,4 C 31,6 km/h (5 Bft)
13.12.2017 09:00 2,2 C 91 % 1000,8 hPa 0,0 l/m 18,0 km/h (3 Bft) S 0,00 h 11 W/m 0,9 C -5,8 C 31,1 km/h (5 Bft)
13.12.2017 10:00 2,1 C 92 % 999,4 hPa 0,8 l/m 19,3 km/h (3 Bft) S 0,00 h 31 W/m 1,0 C -6,5 C 32,2 km/h (5 Bft)
13.12.2017 11:00 2,7 C 93 % 997,6 hPa 0,0 l/m 20,6 km/h (4 Bft) S 0,00 h 45 W/m 1,7 C -6,3 C 34,3 km/h (5 Bft)
13.12.2017 12:00 2,7 C 93 % 996,2 hPa 0,6 l/m 18,8 km/h (3 Bft) S 0,00 h 26 W/m 1,7 C -5,6 C 32,9 km/h (5 Bft)
13.12.2017 13:00 2,3 C 95 % 994,6 hPa 0,6 l/m 17,6 km/h (3 Bft) S 0,00 h 19 W/m 1,5 C -5,5 C 32,6 km/h (5 Bft)
13.12.2017 14:00 2,5 C 96 % 993,1 hPa 0,8 l/m 17,6 km/h (3 Bft) S 0,00 h 10 W/m 1,9 C -5,2 C 30,7 km/h (5 Bft)
13.12.2017 15:00 2,2 C 96 % 991,9 hPa 0,8 l/m 17,4 km/h (3 Bft) S 0,00 h 5 W/m 1,6 C -5,5 C 29,7 km/h (5 Bft)
13.12.2017 16:00 1,8 C 96 % 991,0 hPa 0,8 l/m 15,0 km/h (3 Bft) S 0,00 h 0 W/m 1,3 C -4,7 C 26,2 km/h (4 Bft)
13.12.2017 17:00 1,8 C 96 % 990,1 hPa 0,0 l/m 13,8 km/h (3 Bft) S 0,00 h 0 W/m 1,2 C -4,1 C 24,3 km/h (4 Bft)
13.12.2017 18:00 2,1 C 96 % 989,0 hPa 0,0 l/m 14,0 km/h (3 Bft) S-SW 0,00 h 0 W/m 1,5 C -3,9 C 24,0 km/h (4 Bft)
13.12.2017 19:00 2,7 C 97 % 987,9 hPa 0,0 l/m 13,6 km/h (3 Bft) S 0,00 h 0 W/m 2,3 C -2,9 C 24,0 km/h (4 Bft)
13.12.2017 20:00 3,4 C 97 % 986,4 hPa 0,2 l/m 14,5 km/h (3 Bft) S 0,00 h 0 W/m 3,0 C -2,5 C 24,9 km/h (4 Bft)
13.12.2017 21:00 3,9 C 97 % 984,7 hPa 0,0 l/m 13,2 km/h (3 Bft) S 0,00 h 0 W/m 3,4 C -1,2 C 23,1 km/h (4 Bft)
13.12.2017 22:00 4,0 C 97 % 982,8 hPa 0,0 l/m 11,6 km/h (2 Bft) S-SO 0,00 h 0 W/m 3,6 C -0,1 C 22,0 km/h (4 Bft)
13.12.2017 23:00 3,7 C 97 % 980,8 hPa 0,8 l/m 11,7 km/h (2 Bft) SO 0,00 h 0 W/m 3,2 C -0,6 C 22,3 km/h (4 Bft)
14.12.2017 00:00 3,4 C 97 % 979,3 hPa 0,8 l/m 13,6 km/h (3 Bft) S 0,00 h 0 W/m 3,0 C -1,9 C 24,6 km/h (4 Bft)
14.12.2017 01:00 3,5 C 97 % 978,3 hPa 0,6 l/m 15,7 km/h (3 Bft) W-SW 0,00 h 0 W/m 3,1 C -3,0 C 28,0 km/h (5 Bft)
14.12.2017 02:00 4,2 C 97 % 978,9 hPa 0,4 l/m 18,2 km/h (3 Bft) W 0,00 h 0 W/m 3,8 C -3,4 C 30,4 km/h (5 Bft)
14.12.2017 03:00 4,3 C 97 % 979,8 hPa 1,4 l/m 16,4 km/h (3 Bft) W-SW 0,00 h 0 W/m 3,8 C -2,5 C 29,3 km/h (5 Bft)
14.12.2017 04:00 4,1 C 97 % 980,3 hPa 0,0 l/m 17,3 km/h (3 Bft) SW 0,00 h 0 W/m 3,6 C -3,0 C 28,1 km/h (5 Bft)
14.12.2017 05:00 3,7 C 95 % 981,2 hPa 0,0 l/m 21,9 km/h (4 Bft) W-SW 0,00 h 0 W/m 3,0 C -5,6 C 34,5 km/h (5 Bft)
14.12.2017 06:00 3,7 C 94 % 981,6 hPa 0,0 l/m 22,1 km/h (4 Bft) SW 0,00 h 0 W/m 2,8 C -5,7 C 33,3 km/h (5 Bft)
14.12.2017 07:00 3,5 C 94 % 982,3 hPa 0,0 l/m 20,4 km/h (4 Bft) S-SW 0,00 h 0 W/m 2,7 C -5,2 C 30,1 km/h (5 Bft)
14.12.2017 08:00 3,6 C 94 % 983,1 hPa 0,2 l/m 22,6 km/h (4 Bft) SW 0,00 h 0 W/m 2,8 C -5,9 C 34,6 km/h (5 Bft)
14.12.2017 09:00 3,1 C 94 % 984,1 hPa 1,6 l/m 21,4 km/h (4 Bft) SW 0,00 h 13 W/m 2,2 C -6,1 C 33,7 km/h (5 Bft)
14.12.2017 10:00 2,9 C 95 % 985,0 hPa 0,2 l/m 21,0 km/h (4 Bft) SW 0,00 h 39 W/m 2,2 C -6,3 C 32,6 km/h (5 Bft)
14.12.2017 11:00 2,8 C 95 % 985,3 hPa 0,2 l/m 22,1 km/h (4 Bft) SW 0,00 h 34 W/m 2,1 C -6,8 C 33,3 km/h (5 Bft)
14.12.2017 12:00 3,1 C 96 % 985,4 hPa 0,6 l/m 21,3 km/h (4 Bft) SW 0,20 h 107 W/m 2,5 C -6,2 C 34,1 km/h (5 Bft)
14.12.2017 13:00 2,6 C 95 % 985,7 hPa 1,2 l/m 20,1 km/h (4 Bft) SW 0,00 h 26 W/m 2,0 C -6,2 C 31,2 km/h (5 Bft)
14.12.2017 14:00 3,0 C 96 % 985,9 hPa 0,6 l/m 16,6 km/h (3 Bft) SW 0,00 h 15 W/m 2,4 C -4,2 C 25,0 km/h (4 Bft)
14.12.2017 15:00 3,5 C 96 % 986,1 hPa 0,2 l/m 15,2 km/h (3 Bft) SW 0,20 h 16 W/m 2,9 C -2,9 C 23,9 km/h (4 Bft)
14.12.2017 16:00 3,3 C 95 % 986,2 hPa 0,0 l/m 13,9 km/h (3 Bft) SW 0,00 h 13 W/m 2,6 C -2,3 C 21,9 km/h (4 Bft)
14.12.2017 17:00 3,2 C 95 % 986,3 hPa 0,0 l/m 15,9 km/h (3 Bft) SW 0,00 h 0 W/m 2,5 C -3,6 C 25,0 km/h (4 Bft)
14.12.2017 18:00 3,0 C 95 % 986,4 hPa 0,0 l/m 15,6 km/h (3 Bft) S-SW 0,00 h 0 W/m 2,3 C -3,6 C 24,2 km/h (4 Bft)
14.12.2017 19:00 2,8 C 95 % 986,5 hPa 0,0 l/m 15,7 km/h (3 Bft) SW 0,00 h 0 W/m 2,1 C -3,9 C 25,1 km/h (4 Bft)
14.12.2017 20:00 2,9 C 95 % 986,7 hPa 0,0 l/m 12,7 km/h (3 Bft) S-SW 0,00 h 0 W/m 2,2 C -2,0 C 21,1 km/h (4 Bft)
14.12.2017 21:00 3,3 C 95 % 986,8 hPa 0,0 l/m 13,8 km/h (3 Bft) SW 0,00 h 0 W/m 2,6 C -2,2 C 22,2 km/h (4 Bft)
14.12.2017 22:00 3,4 C 95 % 986,7 hPa 0,0 l/m 12,0 km/h (2 Bft) SW 0,00 h 0 W/m 2,7 C -1,0 C 19,9 km/h (4 Bft)
14.12.2017 23:00 3,4 C 95 % 986,8 hPa 0,0 l/m 13,9 km/h (3 Bft) SW 0,00 h 0 W/m 2,6 C -2,2 C 21,5 km/h (4 Bft)
15.12.2017 00:00 3,3 C 94 % 987,1 hPa 0,0 l/m 13,6 km/h (3 Bft) SW 0,00 h 0 W/m 2,4 C -2,1 C 20,3 km/h (4 Bft)
15.12.2017 01:00 3,2 C 94 % 987,2 hPa 0,0 l/m 12,8 km/h (3 Bft) SW 0,00 h 0 W/m 2,3 C -1,8 C 20,3 km/h (4 Bft)
15.12.2017 02:00 3,1 C 94 % 987,6 hPa 0,0 l/m 10,5 km/h (2 Bft) S-SW 0,00 h 0 W/m 2,3 C -0,3 C 17,0 km/h (3 Bft)
15.12.2017 03:00 3,2 C 94 % 988,0 hPa 0,0 l/m 8,9 km/h (2 Bft) SW 0,00 h 0 W/m 2,3 C 1,0 C 15,0 km/h (3 Bft)
15.12.2017 04:00 3,1 C 94 % 988,3 hPa 0,0 l/m 8,3 km/h (2 Bft) SW 0,00 h 0 W/m 2,2 C 1,4 C 13,8 km/h (3 Bft)
15.12.2017 05:00 2,8 C 94 % 988,8 hPa 0,0 l/m 9,4 km/h (2 Bft) SW 0,00 h 0 W/m 1,9 C 0,2 C 14,7 km/h (3 Bft)
15.12.2017 06:00 2,7 C 94 % 989,4 hPa 0,0 l/m 10,3 km/h (2 Bft) SW 0,00 h 0 W/m 1,8 C -0,7 C 16,7 km/h (3 Bft)
15.12.2017 07:00 2,7 C 93 % 990,2 hPa 0,0 l/m 10,8 km/h (2 Bft) SW 0,00 h 0 W/m 1,8 C -1,0 C 16,7 km/h (3 Bft)
15.12.2017 08:00 2,7 C 93 % 990,9 hPa 0,0 l/m 10,3 km/h (2 Bft) SW 0,00 h 6 W/m 1,7 C -0,7 C 16,7 km/h (3 Bft)
15.12.2017 09:00 2,9 C 94 % 991,6 hPa 0,0 l/m 10,6 km/h (2 Bft) SW 0,00 h 20 W/m 2,0 C -0,6 C 17,1 km/h (3 Bft)
15.12.2017 10:00 3,1 C 94 % 992,5 hPa 0,0 l/m 10,5 km/h (2 Bft) SW 0,00 h 42 W/m 2,2 C -0,4 C 17,2 km/h (3 Bft)
15.12.2017 11:00 3,0 C 94 % 993,2 hPa 0,0 l/m 11,3 km/h (2 Bft) SW 0,00 h 48 W/m 2,1 C -1,0 C 17,3 km/h (3 Bft)
15.12.2017 12:00 2,9 C 94 % 993,5 hPa 0,0 l/m 10,1 km/h (2 Bft) SW 0,00 h 32 W/m 2,0 C -0,3 C 16,3 km/h (3 Bft)
15.12.2017 13:00 3,0 C 94 % 994,0 hPa 0,0 l/m 10,9 km/h (2 Bft) SW 0,00 h 36 W/m 2,1 C -0,7 C 16,8 km/h (3 Bft)
15.12.2017 14:00 2,9 C 94 % 994,8 hPa 0,0 l/m 9,6 km/h (2 Bft) SW 0,00 h 16 W/m 2,1 C 0,2 C 15,8 km/h (3 Bft)
15.12.2017 15:00 2,9 C 94 % 995,4 hPa 0,0 l/m 8,1 km/h (2 Bft) SW 0,00 h 5 W/m 2,0 C 1,4 C 14,7 km/h (3 Bft)
15.12.2017 16:00 2,9 C 94 % 996,0 hPa 0,0 l/m 6,9 km/h (2 Bft) SW 0,00 h 0 W/m 2,0 C 2,2 C 12,9 km/h (3 Bft)
15.12.2017 17:00 3,0 C 94 % 996,5 hPa 0,0 l/m 5,6 km/h (2 Bft) W-SW 0,00 h 0 W/m 2,2 C 2,8 C 11,4 km/h (2 Bft)
15.12.2017 18:00 3,3 C 94 % 996,9 hPa 0,0 l/m 5,6 km/h (2 Bft) W-SW 0,00 h 0 W/m 2,4 C 3,2 C 9,9 km/h (2 Bft)
15.12.2017 19:00 3,6 C 93 % 997,4 hPa 0,0 l/m 6,9 km/h (2 Bft) SW 0,00 h 0 W/m 2,6 C 2,9 C 11,4 km/h (2 Bft)
15.12.2017 20:00 3,4 C 92 % 997,7 hPa 0,0 l/m 7,8 km/h (2 Bft) SW 0,00 h 0 W/m 2,3 C 2,1 C 12,4 km/h (2 Bft)
15.12.2017 21:00 3,2 C 93 % 998,0 hPa 0,0 l/m 10,0 km/h (2 Bft) SW 0,00 h 0 W/m 2,1 C 0,1 C 15,4 km/h (3 Bft)
15.12.2017 22:00 3,3 C 93 % 998,4 hPa 0,0 l/m 11,0 km/h (2 Bft) SW 0,00 h 0 W/m 2,3 C -0,5 C 17,7 km/h (3 Bft)
15.12.2017 23:00 3,5 C 94 % 998,7 hPa 0,0 l/m 11,9 km/h (2 Bft) SW 0,00 h 0 W/m 2,6 C -0,8 C 19,5 km/h (3 Bft)
16.12.2017 00:00 3,3 C 95 % 999,0 hPa 0,0 l/m 12,8 km/h (3 Bft) SW 0,00 h 0 W/m 2,5 C -1,7 C 20,7 km/h (4 Bft)
16.12.2017 01:00 3,2 C 95 % 999,2 hPa 0,0 l/m 12,4 km/h (2 Bft) W-SW 0,00 h 0 W/m 2,4 C -1,6 C 19,3 km/h (3 Bft)
16.12.2017 02:00 2,8 C 95 % 999,7 hPa 0,6 l/m 8,4 km/h (2 Bft) SW 0,00 h 0 W/m 2,1 C 0,9 C 15,1 km/h (3 Bft)
16.12.2017 03:00 3,0 C 96 % 1000,0 hPa 0,0 l/m 7,1 km/h (2 Bft) SW 0,00 h 0 W/m 2,3 C 1,6 C 12,1 km/h (2 Bft)
16.12.2017 04:00 2,9 C 96 % 1000,4 hPa 0,2 l/m 7,0 km/h (2 Bft) SW 0,00 h 0 W/m 2,3 C 1,9 C 11,4 km/h (2 Bft)
16.12.2017 05:00 2,7 C 96 % 1000,7 hPa 0,0 l/m 5,2 km/h (1 Bft) SW 0,00 h 0 W/m 2,1 C 2,5 C 7,8 km/h (2 Bft)
16.12.2017 06:00 2,4 C 96 % 1000,9 hPa 0,0 l/m 4,1 km/h (1 Bft) SW 0,00 h 0 W/m 1,9 C 2,4 C 7,5 km/h (2 Bft)
16.12.2017 07:00 2,7 C 96 % 1001,5 hPa 0,2 l/m 4,6 km/h (1 Bft) NW 0,00 h 0 W/m 2,1 C 2,4 C 8,5 km/h (2 Bft)
16.12.2017 08:00 3,0 C 96 % 1002,1 hPa 0,0 l/m 8,8 km/h (2 Bft) SW 0,00 h 5 W/m 2,4 C 0,8 C 16,3 km/h (3 Bft)
16.12.2017 09:00 3,3 C 96 % 1002,9 hPa 0,0 l/m 7,4 km/h (2 Bft) W-SW 0,00 h 16 W/m 2,7 C 2,0 C 13,0 km/h (3 Bft)
16.12.2017 10:00 3,7 C 96 % 1003,7 hPa 0,0 l/m 7,2 km/h (2 Bft) N-NW 0,00 h 43 W/m 3,0 C 2,2 C 14,3 km/h (3 Bft)
16.12.2017 11:00 4,1 C 94 % 1004,0 hPa 0,0 l/m 4,0 km/h (1 Bft) W 0,20 h 84 W/m 3,2 C 4,1 C 8,0 km/h (2 Bft)
16.12.2017 12:00 4,5 C 91 % 1004,3 hPa 0,0 l/m 9,4 km/h (2 Bft) W-SW 0,95 h 157 W/m 3,2 C 2,0 C 16,0 km/h (3 Bft)
16.12.2017 13:00 4,5 C 90 % 1004,6 hPa 0,0 l/m 9,8 km/h (2 Bft) SW 0,55 h 106 W/m 3,1 C 1,7 C 17,4 km/h (3 Bft)
16.12.2017 14:00 4,6 C 91 % 1005,0 hPa 0,0 l/m 6,8 km/h (2 Bft) W 0,05 h 25 W/m 3,2 C 3,9 C 13,8 km/h (3 Bft)
16.12.2017 15:00 4,2 C 92 % 1005,6 hPa 0,0 l/m 8,1 km/h (2 Bft) W 0,00 h 11 W/m 3,0 C 2,6 C 14,9 km/h (3 Bft)
16.12.2017 16:00 3,8 C 91 % 1006,3 hPa 0,0 l/m 10,0 km/h (2 Bft) W 0,00 h 0 W/m 2,4 C 0,8 C 18,7 km/h (3 Bft)
16.12.2017 17:00 3,7 C 90 % 1006,9 hPa 0,0 l/m 9,2 km/h (2 Bft) W 0,00 h 0 W/m 2,2 C 1,3 C 16,9 km/h (3 Bft)
16.12.2017 18:00 3,5 C 91 % 1007,9 hPa 0,6 l/m 10,1 km/h (2 Bft) W 0,00 h 0 W/m 2,2 C 0,5 C 18,8 km/h (3 Bft)
16.12.2017 19:00 2,6 C 93 % 1008,3 hPa 0,0 l/m 5,7 km/h (2 Bft) SW 0,00 h 0 W/m 1,5 C 2,3 C 9,3 km/h (2 Bft)
16.12.2017 20:00 2,1 C 94 % 1008,8 hPa 0,0 l/m 6,6 km/h (2 Bft) SW 0,00 h 0 W/m 1,2 C 1,6 C 10,0 km/h (2 Bft)
16.12.2017 21:00 2,6 C 95 % 1009,6 hPa 0,4 l/m 6,0 km/h (2 Bft) W 0,00 h 0 W/m 1,8 C 2,0 C 12,6 km/h (2 Bft)
16.12.2017 22:00 2,7 C 95 % 1010,0 hPa 0,0 l/m 5,9 km/h (2 Bft) W 0,00 h 0 W/m 2,0 C 2,5 C 11,9 km/h (2 Bft)
16.12.2017 23:00 3,1 C 95 % 1010,6 hPa 0,0 l/m 9,5 km/h (2 Bft) W 0,00 h 0 W/m 2,4 C 0,5 C 17,6 km/h (3 Bft)
17.12.2017 00:00 3,2 C 95 % 1011,2 hPa 0,0 l/m 9,3 km/h (2 Bft) W-NW 0,00 h 0 W/m 2,4 C 0,7 C 17,6 km/h (3 Bft)
17.12.2017 01:00 3,2 C 94 % 1011,6 hPa 0,0 l/m 8,0 km/h (2 Bft) W 0,00 h 0 W/m 2,3 C 1,6 C 14,5 km/h (3 Bft)
17.12.2017 02:00 3,2 C 94 % 1012,4 hPa 0,0 l/m 4,8 km/h (1 Bft) NW 0,00 h 0 W/m 2,3 C 3,0 C 9,4 km/h (2 Bft)
17.12.2017 03:00 2,4 C 93 % 1013,3 hPa 0,0 l/m 2,5 km/h (1 Bft) N 0,00 h 0 W/m 1,4 C 2,4 C 5,7 km/h (2 Bft)
17.12.2017 04:00 1,6 C 92 % 1014,2 hPa 0,0 l/m 5,6 km/h (2 Bft) N 0,00 h 0 W/m 0,5 C 1,4 C 11,8 km/h (2 Bft)
17.12.2017 05:00 1,7 C 92 % 1014,9 hPa 0,0 l/m 6,6 km/h (2 Bft) N-NW 0,00 h 0 W/m 0,5 C 1,1 C 14,3 km/h (3 Bft)
17.12.2017 06:00 1,8 C 92 % 1015,6 hPa 0,2 l/m 6,3 km/h (2 Bft) N 0,00 h 0 W/m 0,7 C 1,5 C 13,0 km/h (3 Bft)
17.12.2017 07:00 1,7 C 93 % 1016,5 hPa 0,0 l/m 4,6 km/h (1 Bft) N 0,00 h 0 W/m 0,7 C 1,7 C 10,1 km/h (2 Bft)
17.12.2017 08:00 1,4 C 93 % 1017,3 hPa 0,0 l/m 3,2 km/h (1 Bft) N 0,00 h 6 W/m 0,4 C 1,4 C 6,7 km/h (2 Bft)
17.12.2017 09:00 1,0 C 93 % 1018,1 hPa 0,0 l/m 1,9 km/h (1 Bft) N 0,00 h 12 W/m 0,0 C 1,0 C 4,9 km/h (1 Bft)
17.12.2017 10:00 1,3 C 94 % 1018,9 hPa 0,0 l/m 1,2 km/h (1 Bft) N-NW 0,00 h 21 W/m 0,4 C 1,3 C 3,7 km/h (1 Bft)
17.12.2017 11:00 2,5 C 94 % 1019,1 hPa 0,0 l/m 1,1 km/h (1 Bft) N-NW 0,55 h 110 W/m 1,6 C 2,5 C 3,4 km/h (1 Bft)
17.12.2017 12:00 3,9 C 89 % 1019,0 hPa 0,0 l/m 3,4 km/h (1 Bft) W-SW 1,00 h 171 W/m 2,3 C 3,9 C 5,6 km/h (2 Bft)
17.12.2017 13:00 4,1 C 86 % 1019,0 hPa 0,0 l/m 4,2 km/h (1 Bft) SW 0,65 h 106 W/m 2,0 C 4,0 C 6,9 km/h (2 Bft)
17.12.2017 14:00 3,5 C 88 % 1019,0 hPa 0,0 l/m 5,7 km/h (2 Bft) SW 0,10 h 38 W/m 1,7 C 3,3 C 8,4 km/h (2 Bft)
17.12.2017 15:00 2,8 C 90 % 1019,1 hPa 0,0 l/m 4,9 km/h (1 Bft) S 0,00 h 12 W/m 1,4 C 2,8 C 8,4 km/h (2 Bft)
17.12.2017 16:00 1,8 C 92 % 1019,1 hPa 0,0 l/m 5,4 km/h (2 Bft) S 0,00 h 0 W/m 0,6 C 1,6 C 8,8 km/h (2 Bft)
17.12.2017 17:00 1,9 C 94 % 1018,7 hPa 0,0 l/m 9,0 km/h (2 Bft) S 0,00 h 0 W/m 1,0 C -0,5 C 14,5 km/h (3 Bft)
17.12.2017 18:00 2,3 C 94 % 1018,3 hPa 0,0 l/m 9,4 km/h (2 Bft) S 0,00 h 0 W/m 1,4 C -0,4 C 16,0 km/h (3 Bft)
17.12.2017 19:00 2,3 C 94 % 1018,0 hPa 0,0 l/m 10,3 km/h (2 Bft) S 0,00 h 0 W/m 1,5 C -1,1 C 17,1 km/h (3 Bft)
17.12.2017 20:00 2,2 C 95 % 1018,1 hPa 0,0 l/m 9,5 km/h (2 Bft) S 0,00 h 0 W/m 1,5 C -0,5 C 16,1 km/h (3 Bft)
17.12.2017 21:00 2,2 C 95 % 1017,8 hPa 0,0 l/m 9,4 km/h (2 Bft) S 0,00 h 0 W/m 1,5 C -0,5 C 16,4 km/h (3 Bft)
17.12.2017 22:00 2,4 C 95 % 1017,4 hPa 0,0 l/m 11,3 km/h (2 Bft) S 0,00 h 0 W/m 1,7 C -1,8 C 19,4 km/h (3 Bft)
17.12.2017 23:00 2,4 C 95 % 1017,0 hPa 0,0 l/m 13,2 km/h (3 Bft) S 0,00 h 0 W/m 1,7 C -2,9 C 21,9 km/h (4 Bft)
Min-Datum _ 11.12.17 17.12.17 11.12.17 - 17.12.17 - - - 11.12.17 13.12.17 17.12.17
_ Min-Zeit 01:48 13:24 00:00 - 10:36 - - - 01:51 00:54 10:42
Minimum _ -0,4 C 85 % 975,7 hPa - 0,0 km/h (0 Bft) - - - -1,1 C -10,9 C 0,0 km/h (0 Bft)
Max-Datum _ 16.12.17 11.12.17 17.12.17 14.12.17 13.12.17 - 14.12.17 16.12.17 14.12.17 16.12.17 14.12.17
_ Max-Zeit 14:06 22:21 11:03 09:06 00:54 - 12:15 12:09 02:39 14:12 08:33
Maximum _ 4,9 C 97 % 1019,3 hPa 1,6 l/m 29,0 km/h
S-SW (5 Bft)
- 0,05 h 185 W/m 3,9 C 4,9 C 46,7 km/h
SW (6 Bft)
Durchschnitt _ 2,5 C 94 % 996,2 hPa #26,2 l/m 10,6 km/h (2 Bft) SW #4:27 h 35 W/m 1,6 C -1,1 C 18,2 km/h (3 Bft)
2017 Cux-Wetter.de -Die Nutzung der Wetterdaten nur mit ausdrcklicher Genehmigung